sensor_id;sensor_type;location;lat;lon;timestamp;temperature;humidity
17307;DHT22;8771;48.048;7.682;2023-04-08T00:00:37;8.90;65.20
17307;DHT22;8771;48.048;7.682;2023-04-08T00:05:39;8.90;65.30
17307;DHT22;8771;48.048;7.682;2023-04-08T00:10:40;8.80;65.40
17307;DHT22;8771;48.048;7.682;2023-04-08T00:15:44;8.80;65.50
17307;DHT22;8771;48.048;7.682;2023-04-08T00:20:46;8.80;65.50
17307;DHT22;8771;48.048;7.682;2023-04-08T00:25:48;8.80;65.50
17307;DHT22;8771;48.048;7.682;2023-04-08T00:30:53;8.80;65.60
17307;DHT22;8771;48.048;7.682;2023-04-08T00:35:55;8.70;65.70
17307;DHT22;8771;48.048;7.682;2023-04-08T00:40:57;8.60;65.80
17307;DHT22;8771;48.048;7.682;2023-04-08T00:46:00;8.60;65.80
17307;DHT22;8771;48.048;7.682;2023-04-08T00:51:03;8.60;65.80
17307;DHT22;8771;48.048;7.682;2023-04-08T00:56:05;8.60;65.80
17307;DHT22;8771;48.048;7.682;2023-04-08T01:01:13;8.60;65.80
17307;DHT22;8771;48.048;7.682;2023-04-08T01:06:22;8.60;65.80
17307;DHT22;8771;48.048;7.682;2023-04-08T01:11:31;8.50;65.70
17307;DHT22;8771;48.048;7.682;2023-04-08T01:16:37;8.50;65.80
17307;DHT22;8771;48.048;7.682;2023-04-08T01:21:42;8.50;65.70
17307;DHT22;8771;48.048;7.682;2023-04-08T01:26:46;8.50;65.80
17307;DHT22;8771;48.048;7.682;2023-04-08T01:31:48;8.50;65.80
17307;DHT22;8771;48.048;7.682;2023-04-08T01:36:52;8.50;65.80
17307;DHT22;8771;48.048;7.682;2023-04-08T01:41:56;8.50;65.80
17307;DHT22;8771;48.048;7.682;2023-04-08T01:47:00;8.50;65.80
17307;DHT22;8771;48.048;7.682;2023-04-08T01:52:04;8.40;65.80
17307;DHT22;8771;48.048;7.682;2023-04-08T01:57:11;8.40;65.90
17307;DHT22;8771;48.048;7.682;2023-04-08T02:02:16;8.30;65.90
17307;DHT22;8771;48.048;7.682;2023-04-08T02:07:20;8.20;66.10
17307;DHT22;8771;48.048;7.682;2023-04-08T02:12:24;8.20;66.20
17307;DHT22;8771;48.048;7.682;2023-04-08T02:17:33;8.20;66.30
17307;DHT22;8771;48.048;7.682;2023-04-08T02:22:40;8.20;66.20
17307;DHT22;8771;48.048;7.682;2023-04-08T02:27:46;8.20;66.20
17307;DHT22;8771;48.048;7.682;2023-04-08T02:32:49;8.20;66.20
17307;DHT22;8771;48.048;7.682;2023-04-08T02:37:52;8.20;66.10
17307;DHT22;8771;48.048;7.682;2023-04-08T02:42:55;8.20;66.10
17307;DHT22;8771;48.048;7.682;2023-04-08T02:47:58;8.20;66.20
17307;DHT22;8771;48.048;7.682;2023-04-08T02:53:00;8.20;66.20
17307;DHT22;8771;48.048;7.682;2023-04-08T02:58:03;8.20;66.30
17307;DHT22;8771;48.048;7.682;2023-04-08T03:03:05;8.20;66.20
17307;DHT22;8771;48.048;7.682;2023-04-08T03:08:07;8.20;66.20
17307;DHT22;8771;48.048;7.682;2023-04-08T03:13:11;8.30;66.30
17307;DHT22;8771;48.048;7.682;2023-04-08T03:18:13;8.30;66.30
17307;DHT22;8771;48.048;7.682;2023-04-08T03:23:15;8.30;66.20
17307;DHT22;8771;48.048;7.682;2023-04-08T03:28:18;8.30;66.20
17307;DHT22;8771;48.048;7.682;2023-04-08T03:33:20;8.40;66.30
17307;DHT22;8771;48.048;7.682;2023-04-08T03:38:22;8.40;66.20
17307;DHT22;8771;48.048;7.682;2023-04-08T03:43:25;8.40;66.20
17307;DHT22;8771;48.048;7.682;2023-04-08T03:48:27;8.40;66.20
17307;DHT22;8771;48.048;7.682;2023-04-08T03:53:29;8.40;66.30
17307;DHT22;8771;48.048;7.682;2023-04-08T03:58:32;8.50;66.30
17307;DHT22;8771;48.048;7.682;2023-04-08T04:03:34;8.50;66.30
17307;DHT22;8771;48.048;7.682;2023-04-08T04:08:36;8.50;66.20
17307;DHT22;8771;48.048;7.682;2023-04-08T04:13:39;8.50;66.20
17307;DHT22;8771;48.048;7.682;2023-04-08T04:18:41;8.50;66.20
17307;DHT22;8771;48.048;7.682;2023-04-08T04:23:43;8.50;66.20
17307;DHT22;8771;48.048;7.682;2023-04-08T04:28:47;8.50;66.30
17307;DHT22;8771;48.048;7.682;2023-04-08T04:33:49;8.50;66.20
17307;DHT22;8771;48.048;7.682;2023-04-08T04:38:51;8.60;66.30
17307;DHT22;8771;48.048;7.682;2023-04-08T04:43:54;8.60;66.30
17307;DHT22;8771;48.048;7.682;2023-04-08T04:48:56;8.60;66.30
17307;DHT22;8771;48.048;7.682;2023-04-08T04:53:58;8.50;66.30
17307;DHT22;8771;48.048;7.682;2023-04-08T04:59:02;8.60;66.40
17307;DHT22;8771;48.048;7.682;2023-04-08T05:04:05;8.60;66.40
17307;DHT22;8771;48.048;7.682;2023-04-08T05:09:07;8.50;66.30
17307;DHT22;8771;48.048;7.682;2023-04-08T05:14:10;8.50;66.40
17307;DHT22;8771;48.048;7.682;2023-04-08T05:19:12;8.50;66.50
17307;DHT22;8771;48.048;7.682;2023-04-08T05:24:14;8.40;66.60
17307;DHT22;8771;48.048;7.682;2023-04-08T05:29:17;8.40;66.60
17307;DHT22;8771;48.048;7.682;2023-04-08T05:34:21;8.50;66.50
17307;DHT22;8771;48.048;7.682;2023-04-08T05:39:23;8.50;66.40
17307;DHT22;8771;48.048;7.682;2023-04-08T05:44:26;8.60;66.40
17307;DHT22;8771;48.048;7.682;2023-04-08T05:49:28;8.70;66.30
17307;DHT22;8771;48.048;7.682;2023-04-08T05:54:30;8.70;66.30
17307;DHT22;8771;48.048;7.682;2023-04-08T05:59:33;8.70;66.30
17307;DHT22;8771;48.048;7.682;2023-04-08T06:04:35;8.80;66.30
17307;DHT22;8771;48.048;7.682;2023-04-08T06:09:37;8.80;66.30
17307;DHT22;8771;48.048;7.682;2023-04-08T06:14:41;8.90;66.20
17307;DHT22;8771;48.048;7.682;2023-04-08T06:19:43;8.90;66.20
17307;DHT22;8771;48.048;7.682;2023-04-08T06:24:46;9.00;66.20
17307;DHT22;8771;48.048;7.682;2023-04-08T06:29:49;9.00;66.10
17307;DHT22;8771;48.048;7.682;2023-04-08T06:34:51;9.10;66.10
17307;DHT22;8771;48.048;7.682;2023-04-08T06:39:53;9.20;66.10
17307;DHT22;8771;48.048;7.682;2023-04-08T06:44:56;9.30;66.10
17307;DHT22;8771;48.048;7.682;2023-04-08T06:49:58;9.40;66.00
17307;DHT22;8771;48.048;7.682;2023-04-08T06:55:00;9.40;65.90
17307;DHT22;8771;48.048;7.682;2023-04-08T07:00:05;9.50;65.90
17307;DHT22;8771;48.048;7.682;2023-04-08T07:05:08;9.60;65.80
17307;DHT22;8771;48.048;7.682;2023-04-08T07:10:12;9.70;65.80
17307;DHT22;8771;48.048;7.682;2023-04-08T07:15:15;9.90;65.80
17307;DHT22;8771;48.048;7.682;2023-04-08T07:20:17;10.00;65.70
17307;DHT22;8771;48.048;7.682;2023-04-08T07:25:19;10.10;65.50
17307;DHT22;8771;48.048;7.682;2023-04-08T07:30:23;10.20;65.40
17307;DHT22;8771;48.048;7.682;2023-04-08T07:35:24;10.30;65.30
17307;DHT22;8771;48.048;7.682;2023-04-08T07:40:27;10.40;65.40
17307;DHT22;8771;48.048;7.682;2023-04-08T07:45:30;10.50;65.40
17307;DHT22;8771;48.048;7.682;2023-04-08T07:50:35;10.70;65.30
17307;DHT22;8771;48.048;7.682;2023-04-08T07:55:37;10.80;65.10
17307;DHT22;8771;48.048;7.682;2023-04-08T08:00:43;11.00;65.00
17307;DHT22;8771;48.048;7.682;2023-04-08T08:05:45;11.30;64.70
17307;DHT22;8771;48.048;7.682;2023-04-08T08:10:47;11.50;64.50
17307;DHT22;8771;48.048;7.682;2023-04-08T08:15:52;11.70;64.30
17307;DHT22;8771;48.048;7.682;2023-04-08T08:20:54;11.90;64.10
17307;DHT22;8771;48.048;7.682;2023-04-08T08:25:59;12.10;64.10
17307;DHT22;8771;48.048;7.682;2023-04-08T08:31:03;12.30;64.00
17307;DHT22;8771;48.048;7.682;2023-04-08T08:41:08;13.30;63.20
17307;DHT22;8771;48.048;7.682;2023-04-08T08:46:15;12.80;63.60
17307;DHT22;8771;48.048;7.682;2023-04-08T08:51:17;12.90;63.90
17307;DHT22;8771;48.048;7.682;2023-04-08T08:56:19;13.10;63.80
17307;DHT22;8771;48.048;7.682;2023-04-08T09:01:33;13.20;63.80
17307;DHT22;8771;48.048;7.682;2023-04-08T09:06:36;13.30;63.80
17307;DHT22;8771;48.048;7.682;2023-04-08T09:11:40;13.60;63.60
17307;DHT22;8771;48.048;7.682;2023-04-08T09:16:43;13.60;63.50
17307;DHT22;8771;48.048;7.682;2023-04-08T09:22:03;13.60;63.70
17307;DHT22;8771;48.048;7.682;2023-04-08T09:27:06;13.70;63.90
17307;DHT22;8771;48.048;7.682;2023-04-08T09:32:09;13.90;63.70
17307;DHT22;8771;48.048;7.682;2023-04-08T09:37:11;14.00;63.50
17307;DHT22;8771;48.048;7.682;2023-04-08T09:42:13;14.00;63.40
17307;DHT22;8771;48.048;7.682;2023-04-08T09:47:18;13.90;63.60
17307;DHT22;8771;48.048;7.682;2023-04-08T09:52:29;13.80;64.00
17307;DHT22;8771;48.048;7.682;2023-04-08T09:57:39;13.60;64.20
17307;DHT22;8771;48.048;7.682;2023-04-08T10:02:50;13.60;64.30
17307;DHT22;8771;48.048;7.682;2023-04-08T10:07:56;13.60;64.30
17307;DHT22;8771;48.048;7.682;2023-04-08T10:12:58;13.70;64.30
17307;DHT22;8771;48.048;7.682;2023-04-08T10:18:32;13.90;64.10
17307;DHT22;8771;48.048;7.682;2023-04-08T10:23:54;14.00;63.90
17307;DHT22;8771;48.048;7.682;2023-04-08T10:29:29;14.10;63.70
17307;DHT22;8771;48.048;7.682;2023-04-08T10:34:32;14.20;63.70
17307;DHT22;8771;48.048;7.682;2023-04-08T10:39:35;14.30;63.70
17307;DHT22;8771;48.048;7.682;2023-04-08T10:44:37;14.40;63.60
17307;DHT22;8771;48.048;7.682;2023-04-08T10:49:47;14.40;63.50
17307;DHT22;8771;48.048;7.682;2023-04-08T10:54:49;14.50;63.40
17307;DHT22;8771;48.048;7.682;2023-04-08T10:59:51;14.60;63.50
17307;DHT22;8771;48.048;7.682;2023-04-08T11:04:54;14.60;64.20
17307;DHT22;8771;48.048;7.682;2023-04-08T11:09:57;14.60;62.70
17307;DHT22;8771;48.048;7.682;2023-04-08T11:15:04;14.50;63.30
17307;DHT22;8771;48.048;7.682;2023-04-08T11:20:09;14.60;63.40
17307;DHT22;8771;48.048;7.682;2023-04-08T11:25:11;14.60;63.40
17307;DHT22;8771;48.048;7.682;2023-04-08T11:30:14;14.60;63.40
17307;DHT22;8771;48.048;7.682;2023-04-08T11:35:17;14.60;63.30
17307;DHT22;8771;48.048;7.682;2023-04-08T11:40:20;14.70;63.30
17307;DHT22;8771;48.048;7.682;2023-04-08T12:10:41;15.80;82.50
17307;DHT22;8771;48.048;7.682;2023-04-08T12:15:43;15.10;71.50
17307;DHT22;8771;48.048;7.682;2023-04-08T12:20:47;15.40;66.40
17307;DHT22;8771;48.048;7.682;2023-04-08T12:25:49;15.60;66.00
17307;DHT22;8771;48.048;7.682;2023-04-08T12:30:51;15.90;65.50
17307;DHT22;8771;48.048;7.682;2023-04-08T12:35:54;16.10;64.60
17307;DHT22;8771;48.048;7.682;2023-04-08T12:40:57;16.20;64.10
17307;DHT22;8771;48.048;7.682;2023-04-08T12:46:00;16.30;63.20
17307;DHT22;8771;48.048;7.682;2023-04-08T12:51:04;16.30;62.60
17307;DHT22;8771;48.048;7.682;2023-04-08T12:56:06;16.20;63.70
17307;DHT22;8771;48.048;7.682;2023-04-08T13:01:08;16.00;61.60
17307;DHT22;8771;48.048;7.682;2023-04-08T13:06:13;15.70;61.90
17307;DHT22;8771;48.048;7.682;2023-04-08T13:11:16;15.50;62.90
17307;DHT22;8771;48.048;7.682;2023-04-08T13:16:18;15.30;62.50
17307;DHT22;8771;48.048;7.682;2023-04-08T13:21:22;15.10;62.70
17307;DHT22;8771;48.048;7.682;2023-04-08T13:26:24;15.00;62.90
17307;DHT22;8771;48.048;7.682;2023-04-08T13:31:27;15.00;62.90
17307;DHT22;8771;48.048;7.682;2023-04-08T13:36:30;15.00;62.90
17307;DHT22;8771;48.048;7.682;2023-04-08T13:41:32;14.90;62.90
17307;DHT22;8771;48.048;7.682;2023-04-08T13:46:34;15.00;62.80
17307;DHT22;8771;48.048;7.682;2023-04-08T13:51:37;15.10;62.50
17307;DHT22;8771;48.048;7.682;2023-04-08T13:56:40;15.40;62.20
17307;DHT22;8771;48.048;7.682;2023-04-08T14:01:42;15.60;62.00
17307;DHT22;8771;48.048;7.682;2023-04-08T14:06:45;15.60;61.90
17307;DHT22;8771;48.048;7.682;2023-04-08T14:11:47;15.70;61.80
17307;DHT22;8771;48.048;7.682;2023-04-08T14:16:49;15.60;61.90
17307;DHT22;8771;48.048;7.682;2023-04-08T14:21:53;15.50;62.00
17307;DHT22;8771;48.048;7.682;2023-04-08T14:26:55;15.40;62.10
17307;DHT22;8771;48.048;7.682;2023-04-08T14:31:57;15.20;62.30
17307;DHT22;8771;48.048;7.682;2023-04-08T14:37:00;15.20;62.40
17307;DHT22;8771;48.048;7.682;2023-04-08T14:42:02;15.10;62.50
17307;DHT22;8771;48.048;7.682;2023-04-08T14:47:04;15.10;62.70
17307;DHT22;8771;48.048;7.682;2023-04-08T14:52:08;15.10;62.60
17307;DHT22;8771;48.048;7.682;2023-04-08T14:57:10;15.10;62.60
17307;DHT22;8771;48.048;7.682;2023-04-08T15:02:12;15.00;62.70
17307;DHT22;8771;48.048;7.682;2023-04-08T15:07:16;15.00;62.70
17307;DHT22;8771;48.048;7.682;2023-04-08T15:12:18;15.00;62.60
17307;DHT22;8771;48.048;7.682;2023-04-08T15:17:22;15.10;62.50
17307;DHT22;8771;48.048;7.682;2023-04-08T15:22:26;15.10;63.30
17307;DHT22;8771;48.048;7.682;2023-04-08T15:27:28;15.20;62.40
17307;DHT22;8771;48.048;7.682;2023-04-08T15:32:30;15.10;62.40
17307;DHT22;8771;48.048;7.682;2023-04-08T15:37:34;15.10;62.40
17307;DHT22;8771;48.048;7.682;2023-04-08T15:42:36;15.10;62.50
17307;DHT22;8771;48.048;7.682;2023-04-08T15:47:39;15.10;62.50
17307;DHT22;8771;48.048;7.682;2023-04-08T15:52:42;15.00;62.50
17307;DHT22;8771;48.048;7.682;2023-04-08T15:57:44;14.90;62.70
17307;DHT22;8771;48.048;7.682;2023-04-08T16:02:46;14.90;62.90
17307;DHT22;8771;48.048;7.682;2023-04-08T16:07:50;14.80;62.80
17307;DHT22;8771;48.048;7.682;2023-04-08T16:12:52;14.70;62.90
17307;DHT22;8771;48.048;7.682;2023-04-08T16:17:54;14.50;62.90
17307;DHT22;8771;48.048;7.682;2023-04-08T16:22:58;14.40;63.00
17307;DHT22;8771;48.048;7.682;2023-04-08T16:28:00;14.30;63.10
17307;DHT22;8771;48.048;7.682;2023-04-08T16:33:02;14.20;63.10
17307;DHT22;8771;48.048;7.682;2023-04-08T16:38:05;14.10;63.10
17307;DHT22;8771;48.048;7.682;2023-04-08T16:43:07;14.00;63.10
17307;DHT22;8771;48.048;7.682;2023-04-08T16:48:09;13.90;63.10
17307;DHT22;8771;48.048;7.682;2023-04-08T16:53:13;13.80;63.10
17307;DHT22;8771;48.048;7.682;2023-04-08T16:58:15;13.70;63.10
17307;DHT22;8771;48.048;7.682;2023-04-08T17:03:17;13.70;63.20
17307;DHT22;8771;48.048;7.682;2023-04-08T17:08:20;13.50;63.10
17307;DHT22;8771;48.048;7.682;2023-04-08T17:13:23;13.50;63.20
17307;DHT22;8771;48.048;7.682;2023-04-08T17:18:25;13.50;63.20
17307;DHT22;8771;48.048;7.682;2023-04-08T17:23:28;13.40;63.20
17307;DHT22;8771;48.048;7.682;2023-04-08T17:28:30;13.30;63.20
17307;DHT22;8771;48.048;7.682;2023-04-08T17:33:33;13.30;63.10
17307;DHT22;8771;48.048;7.682;2023-04-08T17:38:36;13.30;63.10
17307;DHT22;8771;48.048;7.682;2023-04-08T17:43:39;13.30;63.10
17307;DHT22;8771;48.048;7.682;2023-04-08T17:48:42;13.20;63.00
17307;DHT22;8771;48.048;7.682;2023-04-08T17:53:45;13.20;63.00
17307;DHT22;8771;48.048;7.682;2023-04-08T17:58:47;13.20;63.10
17307;DHT22;8771;48.048;7.682;2023-04-08T18:03:49;13.20;63.10
17307;DHT22;8771;48.048;7.682;2023-04-08T18:08:52;13.10;63.20
17307;DHT22;8771;48.048;7.682;2023-04-08T18:13:54;13.10;63.20
17307;DHT22;8771;48.048;7.682;2023-04-08T18:18:56;13.10;63.20
17307;DHT22;8771;48.048;7.682;2023-04-08T18:24:00;13.10;63.20
17307;DHT22;8771;48.048;7.682;2023-04-08T18:29:02;13.00;63.20
17307;DHT22;8771;48.048;7.682;2023-04-08T18:34:04;13.00;63.50
17307;DHT22;8771;48.048;7.682;2023-04-08T18:39:07;13.00;63.30
17307;DHT22;8771;48.048;7.682;2023-04-08T18:44:09;12.90;63.20
17307;DHT22;8771;48.048;7.682;2023-04-08T18:49:11;12.80;63.20
17307;DHT22;8771;48.048;7.682;2023-04-08T18:54:14;12.80;63.20
17307;DHT22;8771;48.048;7.682;2023-04-08T18:59:17;12.80;63.30
17307;DHT22;8771;48.048;7.682;2023-04-08T19:04:19;12.70;63.20
17307;DHT22;8771;48.048;7.682;2023-04-08T19:09:23;12.70;63.30
17307;DHT22;8771;48.048;7.682;2023-04-08T19:14:25;12.60;63.20
17307;DHT22;8771;48.048;7.682;2023-04-08T19:19:27;12.60;63.20
17307;DHT22;8771;48.048;7.682;2023-04-08T19:24:30;12.60;63.20
17307;DHT22;8771;48.048;7.682;2023-04-08T19:29:33;12.50;63.20
17307;DHT22;8771;48.048;7.682;2023-04-08T19:34:36;12.50;63.20
17307;DHT22;8771;48.048;7.682;2023-04-08T19:39:40;12.50;63.80
17307;DHT22;8771;48.048;7.682;2023-04-08T19:44:42;12.50;63.10
17307;DHT22;8771;48.048;7.682;2023-04-08T19:49:44;12.50;63.10
17307;DHT22;8771;48.048;7.682;2023-04-08T19:54:50;12.40;63.10
17307;DHT22;8771;48.048;7.682;2023-04-08T19:59:52;12.40;63.20
17307;DHT22;8771;48.048;7.682;2023-04-08T20:04:54;12.30;63.20
17307;DHT22;8771;48.048;7.682;2023-04-08T20:09:58;12.30;63.20
17307;DHT22;8771;48.048;7.682;2023-04-08T20:15:00;12.30;63.40
17307;DHT22;8771;48.048;7.682;2023-04-08T20:20:02;12.20;63.40
17307;DHT22;8771;48.048;7.682;2023-04-08T20:25:06;12.20;63.40
17307;DHT22;8771;48.048;7.682;2023-04-08T20:30:09;12.10;63.40
17307;DHT22;8771;48.048;7.682;2023-04-08T20:35:11;12.10;63.40
17307;DHT22;8771;48.048;7.682;2023-04-08T20:40:15;12.00;63.40
17307;DHT22;8771;48.048;7.682;2023-04-08T20:50:21;11.90;62.90
17307;DHT22;8771;48.048;7.682;2023-04-08T20:55:25;11.80;63.50
17307;DHT22;8771;48.048;7.682;2023-04-08T21:00:27;11.80;63.60
17307;DHT22;8771;48.048;7.682;2023-04-08T21:05:29;11.70;63.60
17307;DHT22;8771;48.048;7.682;2023-04-08T21:10:32;11.70;63.60
17307;DHT22;8771;48.048;7.682;2023-04-08T21:15:35;11.60;63.70
17307;DHT22;8771;48.048;7.682;2023-04-08T21:20:38;11.60;63.80
17307;DHT22;8771;48.048;7.682;2023-04-08T21:25:42;11.60;63.80
17307;DHT22;8771;48.048;7.682;2023-04-08T21:30:45;11.60;63.90
17307;DHT22;8771;48.048;7.682;2023-04-08T21:35:47;11.60;63.90
17307;DHT22;8771;48.048;7.682;2023-04-08T21:40:50;11.60;63.90
17307;DHT22;8771;48.048;7.682;2023-04-08T21:45:52;11.60;63.80
17307;DHT22;8771;48.048;7.682;2023-04-08T21:50:55;11.50;63.80
17307;DHT22;8771;48.048;7.682;2023-04-08T21:55:58;11.60;63.80
17307;DHT22;8771;48.048;7.682;2023-04-08T22:01:00;11.50;63.80
17307;DHT22;8771;48.048;7.682;2023-04-08T22:06:06;11.50;63.80
17307;DHT22;8771;48.048;7.682;2023-04-08T22:11:09;11.50;63.90
17307;DHT22;8771;48.048;7.682;2023-04-08T22:16:11;11.50;63.80
17307;DHT22;8771;48.048;7.682;2023-04-08T22:21:13;11.50;63.80
17307;DHT22;8771;48.048;7.682;2023-04-08T22:26:16;11.50;63.90
17307;DHT22;8771;48.048;7.682;2023-04-08T22:31:18;11.40;63.90
17307;DHT22;8771;48.048;7.682;2023-04-08T22:36:20;11.40;63.80
17307;DHT22;8771;48.048;7.682;2023-04-08T22:41:24;11.40;63.90
17307;DHT22;8771;48.048;7.682;2023-04-08T22:46:26;11.40;63.80
17307;DHT22;8771;48.048;7.682;2023-04-08T22:51:28;11.40;63.80
17307;DHT22;8771;48.048;7.682;2023-04-08T22:56:31;11.40;63.90
17307;DHT22;8771;48.048;7.682;2023-04-08T23:01:33;11.30;63.90
17307;DHT22;8771;48.048;7.682;2023-04-08T23:06:37;11.20;64.80
17307;DHT22;8771;48.048;7.682;2023-04-08T23:11:40;11.20;64.10
17307;DHT22;8771;48.048;7.682;2023-04-08T23:16:42;11.10;64.10
17307;DHT22;8771;48.048;7.682;2023-04-08T23:21:44;11.00;64.20
17307;DHT22;8771;48.048;7.682;2023-04-08T23:26:47;11.00;64.40
17307;DHT22;8771;48.048;7.682;2023-04-08T23:31:49;10.80;64.40
17307;DHT22;8771;48.048;7.682;2023-04-08T23:36:51;10.70;64.70
17307;DHT22;8771;48.048;7.682;2023-04-08T23:41:54;10.70;71.30
